createdAt,value
2023-02-12T00:00:21.223Z,35.63
2023-02-12T00:08:44.499Z,32.58
2023-02-12T00:11:15.408Z,35.45
2023-02-12T00:13:42.816Z,31.90
2023-02-12T00:16:12.189Z,29.52
2023-02-12T00:18:40.037Z,31.98
2023-02-12T00:21:09.056Z,29.30
2023-02-12T00:23:37.733Z,32.63
2023-02-12T00:26:13.125Z,27.45
2023-02-12T00:28:46.618Z,30.27
2023-02-12T00:31:17.573Z,28.25
2023-02-12T00:33:45.486Z,25.95
2023-02-12T00:36:16.343Z,27.67
2023-02-12T00:38:58.515Z,26.70
2023-02-12T00:41:26.848Z,27.73
2023-02-12T00:43:55.275Z,30.40
2023-02-12T00:46:25.514Z,29.90
2023-02-12T00:48:52.749Z,29.48
2023-02-12T00:51:21.772Z,28.77
2023-02-12T00:53:48.998Z,29.00
2023-02-12T00:56:24.726Z,25.90
2023-02-12T00:58:55.331Z,29.05
2023-02-12T01:01:22.504Z,27.27
2023-02-12T01:03:49.672Z,26.40
2023-02-12T01:06:16.874Z,27.02
2023-02-12T01:08:46.181Z,26.48
2023-02-12T01:11:14.506Z,29.75
2023-02-12T01:13:41.542Z,25.33
2023-02-12T01:16:21.775Z,25.85
2023-02-12T01:18:56.066Z,25.30
2023-02-12T01:21:31.119Z,27.45
2023-02-12T01:24:00.493Z,28.30
2023-02-12T01:26:29.610Z,29.23
2023-02-12T01:29:01.444Z,26.05
2023-02-12T01:31:31.968Z,27.73
2023-02-12T01:34:01.101Z,29.80
2023-02-12T01:36:30.514Z,28.50
2023-02-12T01:38:59.233Z,29.98
2023-02-12T01:41:28.896Z,29.13
2023-02-12T01:44:19.024Z,32.70
2023-02-12T01:46:48.413Z,32.67
2023-02-12T01:49:26.010Z,30.42
2023-02-12T01:51:59.371Z,36.00
2023-02-12T01:54:30.336Z,34.28
2023-02-12T01:57:00.291Z,35.03
2023-02-12T01:59:27.678Z,34.75
2023-02-12T02:01:55.603Z,33.67
2023-02-12T02:04:29.064Z,32.80
2023-02-12T02:07:04.783Z,33.83
2023-02-12T02:09:36.308Z,34.28
2023-02-12T02:12:22.805Z,35.25
2023-02-12T02:14:53.274Z,36.58
2023-02-12T02:17:26.386Z,40.00
2023-02-12T02:20:04.003Z,37.63
2023-02-12T02:22:53.811Z,42.28
2023-02-12T02:25:46.475Z,37.08
2023-02-12T02:28:25.610Z,34.80
2023-02-12T02:31:19.172Z,39.65
2023-02-12T02:34:05.286Z,41.17
2023-02-12T02:37:00.050Z,36.72
2023-02-12T02:39:27.667Z,38.85
2023-02-12T02:41:54.674Z,39.78
2023-02-12T02:44:31.485Z,39.33
2023-02-12T02:47:00.222Z,36.45
2023-02-12T02:49:43.317Z,40.20
2023-02-12T02:52:17.575Z,40.08
2023-02-12T02:54:49.572Z,34.80
2023-02-12T02:57:23.200Z,39.65
2023-02-12T02:59:56.095Z,37.58
2023-02-12T03:02:35.475Z,36.33
2023-02-12T03:05:11.303Z,36.15
2023-02-12T03:08:01.114Z,34.20
2023-02-12T03:10:32.670Z,36.08
2023-02-12T03:13:05.561Z,36.47
2023-02-12T03:15:38.711Z,32.38
2023-02-12T03:18:10.596Z,33.85
2023-02-12T03:20:44.919Z,32.83
2023-02-12T03:23:15.874Z,36.95
2023-02-12T03:25:54.484Z,33.57
2023-02-12T03:28:33.207Z,33.25
2023-02-12T03:31:31.007Z,34.83
2023-02-12T03:34:13.192Z,31.60
2023-02-12T03:37:03.170Z,33.78
2023-02-12T03:39:49.161Z,32.70
2023-02-12T03:45:42.538Z,31.58
2023-02-12T03:48:42.966Z,32.70
2023-02-12T03:51:29.069Z,34.75
2023-02-12T03:53:58.145Z,29.30
2023-02-12T03:56:52.548Z,30.58
2023-02-12T03:59:24.911Z,32.17
2023-02-12T04:01:54.349Z,29.58
2023-02-12T04:04:23.043Z,32.90
2023-02-12T04:06:51.165Z,30.67
2023-02-12T04:09:18.863Z,33.78
2023-02-12T04:11:45.897Z,33.85
2023-02-12T04:14:43.451Z,29.90
2023-02-12T04:17:28.846Z,31.85
2023-02-12T04:20:07.894Z,30.70
2023-02-12T04:22:41.068Z,36.35
2023-02-12T04:25:08.263Z,35.42
2023-02-12T04:28:12.492Z,31.67
2023-02-12T04:30:55.116Z,31.00
2023-02-12T04:33:25.547Z,29.42
2023-02-12T04:36:01.127Z,31.90
2023-02-12T04:38:40.450Z,29.00
2023-02-12T04:41:08.005Z,30.70
2023-02-12T04:43:37.497Z,29.05
2023-02-12T04:46:07.359Z,27.77
2023-02-12T04:48:35.099Z,29.08
2023-02-12T04:51:03.054Z,31.73
2023-02-12T04:53:30.160Z,28.33
2023-02-12T04:55:57.587Z,28.60
2023-02-12T04:58:24.827Z,29.80
2023-02-12T05:00:51.881Z,30.10
2023-02-12T05:03:19.038Z,28.13
2023-02-12T05:05:46.133Z,27.20
2023-02-12T05:08:13.308Z,29.92
2023-02-12T05:10:40.268Z,26.83
2023-02-12T05:13:07.329Z,27.05
2023-02-12T05:15:34.397Z,25.25
2023-02-12T05:18:01.466Z,28.60
2023-02-12T05:20:28.566Z,26.13
2023-02-12T05:22:55.571Z,26.30
2023-02-12T05:25:23.035Z,26.92
2023-02-12T05:27:50.105Z,27.73
2023-02-12T05:30:17.365Z,30.00
2023-02-12T05:32:44.477Z,25.00
2023-02-12T05:35:11.432Z,30.63
2023-02-12T05:37:38.366Z,26.27
2023-02-12T05:40:07.106Z,27.23
2023-02-12T05:42:34.634Z,26.45
2023-02-12T05:45:01.812Z,27.60
2023-02-12T05:47:28.839Z,25.23
2023-02-12T05:49:55.913Z,26.55
2023-02-12T05:52:22.885Z,26.65
2023-02-12T05:54:50.580Z,24.13
2023-02-12T05:57:17.828Z,25.33
2023-02-12T05:59:45.212Z,27.13
2023-02-12T06:02:12.308Z,22.70
2023-02-12T06:04:39.327Z,23.70
2023-02-12T06:07:07.433Z,24.88
2023-02-12T06:09:35.318Z,24.40
2023-02-12T06:12:02.730Z,24.20
2023-02-12T06:14:31.892Z,23.38
2023-02-12T06:16:59.207Z,26.17
2023-02-12T06:19:26.398Z,24.33
2023-02-12T06:21:56.259Z,23.80
2023-02-12T06:24:24.568Z,22.00
2023-02-12T06:26:53.129Z,26.67
2023-02-12T06:29:20.900Z,24.48
2023-02-12T06:31:56.961Z,25.58
2023-02-12T06:34:33.126Z,23.27
2023-02-12T06:37:00.363Z,27.13
2023-02-12T06:39:27.552Z,23.60
2023-02-12T06:41:54.773Z,22.08
2023-02-12T06:44:27.356Z,23.90
2023-02-12T06:46:56.072Z,25.60
2023-02-12T06:49:23.105Z,24.38
2023-02-12T06:54:44.774Z,21.52
2023-02-12T06:57:13.082Z,23.25
2023-02-12T06:59:42.520Z,24.45
2023-02-12T07:02:15.886Z,23.92
2023-02-12T07:04:42.955Z,23.70
2023-02-12T07:07:10.169Z,25.95
2023-02-12T07:09:37.246Z,26.27
2023-02-12T07:12:08.699Z,24.00
2023-02-12T07:14:36.641Z,22.53
2023-02-12T07:17:05.663Z,23.73
2023-02-12T07:19:32.815Z,21.50
2023-02-12T07:21:59.950Z,24.17
2023-02-12T07:24:27.155Z,21.25
2023-02-12T07:26:58.817Z,22.52
2023-02-12T07:31:53.905Z,23.55
2023-02-12T07:34:21.294Z,24.30
2023-02-12T07:36:48.470Z,27.50
2023-02-12T07:39:15.621Z,24.15
2023-02-12T07:41:42.708Z,23.90
2023-02-12T07:44:12.234Z,24.52
2023-02-12T07:46:48.576Z,23.50
2023-02-12T07:49:18.346Z,21.38
2023-02-12T07:51:49.914Z,27.00
2023-02-12T07:54:17.758Z,24.45
2023-02-12T07:56:47.460Z,23.85
2023-02-12T07:59:17.375Z,27.05
2023-02-12T08:46:31.774Z,23.70
2023-02-12T08:49:01.803Z,23.40
2023-02-12T08:51:32.615Z,23.38
2023-02-12T08:54:05.900Z,24.83
2023-02-12T08:56:34.531Z,23.08
2023-02-12T08:59:04.179Z,19.77
2023-02-12T09:01:33.626Z,20.40
2023-02-12T09:04:01.271Z,23.33
2023-02-12T09:06:28.369Z,22.90
2023-02-12T09:08:55.957Z,21.02
2023-02-12T09:11:30.790Z,20.65
2023-02-12T09:14:00.529Z,20.95
2023-02-12T09:16:29.059Z,24.38
2023-02-12T09:18:56.385Z,20.85
2023-02-12T09:21:23.978Z,24.63
2023-02-12T09:23:51.082Z,22.73
2023-02-12T09:26:21.395Z,26.35
2023-02-12T09:28:50.112Z,20.30
2023-02-12T09:31:26.552Z,22.77
2023-02-12T09:33:59.123Z,23.85
2023-02-12T09:36:27.028Z,25.55
2023-02-12T09:38:54.406Z,22.08
2023-02-12T09:41:52.773Z,20.48
2023-02-12T09:44:25.714Z,26.52
2023-02-12T09:47:23.972Z,24.25
2023-02-12T10:00:36.724Z,24.02
2023-02-12T10:03:10.769Z,26.63
2023-02-12T10:05:51.574Z,21.35
2023-02-12T10:12:15.983Z,24.10
2023-02-12T10:15:16.493Z,21.05
2023-02-12T10:17:57.819Z,25.05
2023-02-12T10:20:54.540Z,24.83
2023-02-12T10:23:30.999Z,23.60
2023-02-12T10:26:03.319Z,22.85
2023-02-12T10:28:40.598Z,22.27
2023-02-12T10:31:32.305Z,24.52
2023-02-12T10:33:59.502Z,22.58
2023-02-12T10:36:49.098Z,26.88
2023-02-12T10:39:21.133Z,22.48
2023-02-12T10:41:53.942Z,22.23
2023-02-12T10:44:21.271Z,22.02
2023-02-12T10:46:48.285Z,24.25
2023-02-12T10:49:18.098Z,23.92
2023-02-12T10:51:57.587Z,24.08
2023-02-12T10:54:44.676Z,22.55
2023-02-12T10:57:24.898Z,21.33
2023-02-12T10:59:54.565Z,22.75
2023-02-12T11:02:28.397Z,24.45
2023-02-12T11:04:58.280Z,25.08
2023-02-12T11:07:27.770Z,25.75
2023-02-12T11:09:59.796Z,23.35
2023-02-12T11:12:26.804Z,23.05
2023-02-12T11:14:57.524Z,20.63
2023-02-12T11:17:40.862Z,27.60
2023-02-12T11:20:17.460Z,24.50
2023-02-12T11:23:30.117Z,22.83
2023-02-12T11:26:27.168Z,24.67
2023-02-12T11:28:59.771Z,24.48
2023-02-12T11:31:32.575Z,22.25
2023-02-12T11:34:18.051Z,20.98
2023-02-12T11:36:52.196Z,23.80
2023-02-12T11:39:49.506Z,21.20
2023-02-12T11:42:24.651Z,22.92
2023-02-12T11:47:05.482Z,24.10
2023-02-12T11:52:26.279Z,20.17
2023-02-12T11:55:44.527Z,18.98
2023-02-12T11:58:22.158Z,20.70
2023-02-12T12:01:28.381Z,18.67
2023-02-12T12:04:06.935Z,20.52
2023-02-12T12:06:54.692Z,22.23
2023-02-12T12:37:27.478Z,20.08
2023-02-12T12:40:26.328Z,19.23
2023-02-12T12:47:05.382Z,19.08
2023-02-12T12:49:42.192Z,18.10
2023-02-12T12:52:47.664Z,17.50
2023-02-12T12:55:44.596Z,17.95
2023-02-12T12:58:29.858Z,19.77
2023-02-12T13:01:41.808Z,20.38
2023-02-12T13:04:46.208Z,22.20
2023-02-12T13:07:35.198Z,22.35
2023-02-12T13:10:25.802Z,19.83
2023-02-12T13:13:26.653Z,19.65
2023-02-12T13:16:17.373Z,20.63
2023-02-12T13:19:09.839Z,21.17
2023-02-12T13:21:43.041Z,21.67
2023-02-12T13:24:36.452Z,20.70
2023-02-12T13:27:33.284Z,22.13
2023-02-12T13:30:05.263Z,21.10
2023-02-12T13:35:58.327Z,22.52
2023-02-12T13:38:37.843Z,16.10
2023-02-12T13:41:34.123Z,17.15
2023-02-12T13:44:29.070Z,18.70
2023-02-12T13:47:21.197Z,17.70
2023-02-12T13:50:03.764Z,14.90
2023-02-12T13:52:40.253Z,16.42
2023-02-12T13:55:26.464Z,17.88
2023-02-12T13:58:31.362Z,14.57
2023-02-12T14:01:04.017Z,17.85
2023-02-12T14:03:35.491Z,14.68
2023-02-12T14:06:20.528Z,14.43
2023-02-12T14:08:52.718Z,18.25
2023-02-12T14:11:24.409Z,12.73
2023-02-12T14:13:56.531Z,14.10
2023-02-12T14:16:29.925Z,12.48
2023-02-12T14:19:44.756Z,15.13
2023-02-12T14:22:45.185Z,12.85
2023-02-12T14:25:24.689Z,12.27
2023-02-12T14:28:13.783Z,13.60
2023-02-12T14:30:42.333Z,14.48
2023-02-12T14:33:16.910Z,12.70
2023-02-12T14:35:47.126Z,11.32
2023-02-12T14:38:20.176Z,14.43
2023-02-12T14:40:48.961Z,12.32
2023-02-12T14:43:57.909Z,13.45
2023-02-12T14:46:25.423Z,12.52
2023-02-12T14:48:57.018Z,12.23
2023-02-12T14:51:52.174Z,13.55
2023-02-12T14:54:42.596Z,11.30
2023-02-12T14:57:35.268Z,10.25
2023-02-12T15:00:18.099Z,11.50
2023-02-12T15:02:53.924Z,11.23
2023-02-12T15:05:31.451Z,12.80
2023-02-12T15:08:08.215Z,10.70
2023-02-12T15:10:47.750Z,12.57
2023-02-12T15:13:50.187Z,12.13
2023-02-12T15:16:52.374Z,12.20
2023-02-12T15:22:30.109Z,11.55
2023-02-12T15:25:25.597Z,10.88
2023-02-12T15:27:57.286Z,12.73
2023-02-12T15:30:28.409Z,12.05
2023-02-12T15:33:02.774Z,10.60
2023-02-12T15:35:37.496Z,12.18
2023-02-12T15:38:07.689Z,12.95
2023-02-12T15:40:36.169Z,12.15
2023-02-12T15:43:16.976Z,13.85
2023-02-12T15:45:51.573Z,13.40
2023-02-12T15:48:23.683Z,15.27
2023-02-12T15:51:02.375Z,14.05
2023-02-12T15:53:30.874Z,13.15
2023-02-12T15:56:01.731Z,12.10
2023-02-12T15:58:41.791Z,11.57
2023-02-12T16:01:18.876Z,12.68
2023-02-12T16:04:04.075Z,12.60
2023-02-12T16:06:37.210Z,14.15
2023-02-12T16:09:09.824Z,13.10
2023-02-12T16:11:38.024Z,12.88
2023-02-12T16:32:33.793Z,9.55
2023-02-12T16:35:10.366Z,11.10
2023-02-12T16:37:38.287Z,9.73
2023-02-12T16:40:14.232Z,10.18
2023-02-12T16:42:49.236Z,12.02
2023-02-12T16:45:29.881Z,9.82
2023-02-12T16:48:09.668Z,8.52
2023-02-12T16:50:51.719Z,9.52
2023-02-12T16:56:28.928Z,8.52
2023-02-12T17:05:08.026Z,9.75
2023-02-12T17:07:35.250Z,8.77
2023-02-12T17:10:05.233Z,9.23
2023-02-12T17:12:35.113Z,8.55
2023-02-12T17:15:05.976Z,8.43
2023-02-12T17:17:33.157Z,7.00
2023-02-12T17:20:00.538Z,8.45
2023-02-12T17:23:04.022Z,9.30
2023-02-12T17:25:36.373Z,7.80
2023-02-12T17:29:07.697Z,10.27
2023-02-12T17:31:39.353Z,7.65
2023-02-12T17:34:09.512Z,7.53
2023-02-12T17:36:38.366Z,8.02
2023-02-12T17:39:07.206Z,9.20
2023-02-12T17:41:35.977Z,6.53
2023-02-12T17:44:04.478Z,8.40
2023-02-12T17:46:31.943Z,7.90
2023-02-12T17:48:59.829Z,9.10
2023-02-12T17:51:27.223Z,7.60
2023-02-12T17:53:54.477Z,8.68
2023-02-12T17:56:23.312Z,8.88
2023-02-12T17:58:50.305Z,7.50
2023-02-12T18:01:20.011Z,8.73
2023-02-12T18:03:48.160Z,7.85
2023-02-12T18:10:42.604Z,8.15
2023-02-12T18:13:10.500Z,7.55
2023-02-12T18:15:39.613Z,6.28
2023-02-12T18:18:06.780Z,7.75
2023-02-12T18:20:34.333Z,7.07
2023-02-12T18:23:01.565Z,6.60
2023-02-12T18:25:28.922Z,9.05
2023-02-12T18:27:55.944Z,7.72
2023-02-12T18:30:23.203Z,7.18
2023-02-12T18:32:50.252Z,6.13
2023-02-12T18:35:17.375Z,6.15
2023-02-12T18:37:44.528Z,7.35
2023-02-12T18:40:12.248Z,8.18
2023-02-12T18:42:39.622Z,7.40
2023-02-12T18:45:07.591Z,7.03
2023-02-12T18:47:34.807Z,7.32
2023-02-12T18:50:01.809Z,6.07
2023-02-12T18:52:28.953Z,5.85
2023-02-12T18:54:59.058Z,5.55
2023-02-12T18:57:26.709Z,8.23
2023-02-12T18:59:53.955Z,7.03
2023-02-12T19:02:21.171Z,6.43
2023-02-12T19:04:48.480Z,5.13
2023-02-12T19:07:15.822Z,7.55
2023-02-12T19:09:44.891Z,5.65
2023-02-12T19:21:40.824Z,7.07
2023-02-12T19:24:07.925Z,5.55
2023-02-12T19:26:36.155Z,7.00
2023-02-12T19:29:05.071Z,6.68
2023-02-12T19:31:35.154Z,5.75
2023-02-12T19:34:06.140Z,5.35
2023-02-12T19:36:36.003Z,6.20
2023-02-12T19:39:06.088Z,7.25
2023-02-12T23:59:35.053Z,4.38
